sensor_id;sensor_type;location;lat;lon;timestamp;temperature;humidity
5978;DHT22;3015;51.390;12.256;2022-10-22T00:00:15;11.70;99.90
5978;DHT22;3015;51.390;12.256;2022-10-22T00:02:41;11.70;99.90
5978;DHT22;3015;51.390;12.256;2022-10-22T00:05:07;11.60;99.90
5978;DHT22;3015;51.390;12.256;2022-10-22T00:07:33;11.70;99.90
5978;DHT22;3015;51.390;12.256;2022-10-22T00:10:00;11.80;99.90
5978;DHT22;3015;51.390;12.256;2022-10-22T00:12:25;11.80;99.90
5978;DHT22;3015;51.390;12.256;2022-10-22T00:14:51;11.90;99.90
5978;DHT22;3015;51.390;12.256;2022-10-22T00:17:17;11.90;99.90
5978;DHT22;3015;51.390;12.256;2022-10-22T00:19:43;11.90;99.90
5978;DHT22;3015;51.390;12.256;2022-10-22T00:22:10;12.00;99.90
5978;DHT22;3015;51.390;12.256;2022-10-22T00:24:37;12.20;99.90
5978;DHT22;3015;51.390;12.256;2022-10-22T00:27:04;12.20;1.00
5978;DHT22;3015;51.390;12.256;2022-10-22T00:29:30;12.20;1.00
5978;DHT22;3015;51.390;12.256;2022-10-22T00:31:56;12.10;1.00
5978;DHT22;3015;51.390;12.256;2022-10-22T00:34:22;12.10;1.00
5978;DHT22;3015;51.390;12.256;2022-10-22T00:36:49;12.10;1.00
5978;DHT22;3015;51.390;12.256;2022-10-22T00:39:16;12.20;1.00
5978;DHT22;3015;51.390;12.256;2022-10-22T00:41:43;12.20;1.00
5978;DHT22;3015;51.390;12.256;2022-10-22T00:47:13;12.20;1.00
5978;DHT22;3015;51.390;12.256;2022-10-22T00:49:40;12.20;1.00
5978;DHT22;3015;51.390;12.256;2022-10-22T00:52:06;12.20;1.00
5978;DHT22;3015;51.390;12.256;2022-10-22T00:54:32;12.20;1.00
5978;DHT22;3015;51.390;12.256;2022-10-22T00:56:58;12.20;1.00
5978;DHT22;3015;51.390;12.256;2022-10-22T00:59:24;12.20;1.00
5978;DHT22;3015;51.390;12.256;2022-10-22T01:01:50;12.10;1.00
5978;DHT22;3015;51.390;12.256;2022-10-22T01:04:18;12.20;1.00
5978;DHT22;3015;51.390;12.256;2022-10-22T01:06:44;12.20;1.00
5978;DHT22;3015;51.390;12.256;2022-10-22T01:15:18;12.20;1.00
5978;DHT22;3015;51.390;12.256;2022-10-22T01:21:33;12.30;1.00
5978;DHT22;3015;51.390;12.256;2022-10-22T01:24:14;12.30;99.90
5978;DHT22;3015;51.390;12.256;2022-10-22T01:29:12;12.50;99.90
5978;DHT22;3015;51.390;12.256;2022-10-22T01:31:46;12.50;1.00
5978;DHT22;3015;51.390;12.256;2022-10-22T01:34:15;12.50;1.00
5978;DHT22;3015;51.390;12.256;2022-10-22T01:36:42;12.40;1.00
5978;DHT22;3015;51.390;12.256;2022-10-22T01:39:09;12.40;1.00
5978;DHT22;3015;51.390;12.256;2022-10-22T01:41:35;12.40;1.00
5978;DHT22;3015;51.390;12.256;2022-10-22T01:44:03;12.40;1.00
5978;DHT22;3015;51.390;12.256;2022-10-22T01:46:29;12.50;99.90
5978;DHT22;3015;51.390;12.256;2022-10-22T01:57:15;12.50;1.00
5978;DHT22;3015;51.390;12.256;2022-10-22T01:59:56;12.50;1.00
5978;DHT22;3015;51.390;12.256;2022-10-22T02:02:37;12.50;1.00
5978;DHT22;3015;51.390;12.256;2022-10-22T02:05:16;12.40;1.00
5978;DHT22;3015;51.390;12.256;2022-10-22T02:07:52;12.40;1.00
5978;DHT22;3015;51.390;12.256;2022-10-22T02:10:19;12.40;99.90
5978;DHT22;3015;51.390;12.256;2022-10-22T02:12:48;12.40;1.00
5978;DHT22;3015;51.390;12.256;2022-10-22T02:15:16;12.40;99.90
5978;DHT22;3015;51.390;12.256;2022-10-22T02:17:44;12.30;99.90
5978;DHT22;3015;51.390;12.256;2022-10-22T02:20:32;12.20;99.90
5978;DHT22;3015;51.390;12.256;2022-10-22T02:22:59;12.20;99.90
5978;DHT22;3015;51.390;12.256;2022-10-22T02:25:28;12.20;99.90
5978;DHT22;3015;51.390;12.256;2022-10-22T02:28:10;12.10;99.90
5978;DHT22;3015;51.390;12.256;2022-10-22T02:30:39;12.10;99.90
5978;DHT22;3015;51.390;12.256;2022-10-22T02:33:31;12.00;99.90
5978;DHT22;3015;51.390;12.256;2022-10-22T02:35:59;11.90;99.90
5978;DHT22;3015;51.390;12.256;2022-10-22T02:38:26;11.90;99.90
5978;DHT22;3015;51.390;12.256;2022-10-22T02:40:52;11.90;99.90
5978;DHT22;3015;51.390;12.256;2022-10-22T02:43:18;11.90;99.90
5978;DHT22;3015;51.390;12.256;2022-10-22T02:45:44;11.80;99.90
5978;DHT22;3015;51.390;12.256;2022-10-22T02:48:10;11.80;99.90
5978;DHT22;3015;51.390;12.256;2022-10-22T02:50:36;11.70;99.90
5978;DHT22;3015;51.390;12.256;2022-10-22T02:53:02;11.70;99.90
5978;DHT22;3015;51.390;12.256;2022-10-22T02:55:27;11.70;99.90
5978;DHT22;3015;51.390;12.256;2022-10-22T02:57:53;11.70;99.90
5978;DHT22;3015;51.390;12.256;2022-10-22T03:00:19;11.80;99.90
5978;DHT22;3015;51.390;12.256;2022-10-22T03:02:45;11.70;99.90
5978;DHT22;3015;51.390;12.256;2022-10-22T03:05:10;11.70;99.90
5978;DHT22;3015;51.390;12.256;2022-10-22T03:07:36;11.60;99.90
5978;DHT22;3015;51.390;12.256;2022-10-22T03:10:02;11.60;99.90
5978;DHT22;3015;51.390;12.256;2022-10-22T03:12:28;11.60;99.90
5978;DHT22;3015;51.390;12.256;2022-10-22T03:14:53;11.60;99.90
5978;DHT22;3015;51.390;12.256;2022-10-22T03:17:19;11.60;99.90
5978;DHT22;3015;51.390;12.256;2022-10-22T03:19:45;11.60;99.90
5978;DHT22;3015;51.390;12.256;2022-10-22T03:22:20;11.60;99.90
5978;DHT22;3015;51.390;12.256;2022-10-22T03:24:49;11.60;99.90
5978;DHT22;3015;51.390;12.256;2022-10-22T03:27:17;11.60;99.90
5978;DHT22;3015;51.390;12.256;2022-10-22T03:29:44;11.60;99.90
5978;DHT22;3015;51.390;12.256;2022-10-22T03:32:11;11.60;99.90
5978;DHT22;3015;51.390;12.256;2022-10-22T03:34:37;11.60;99.90
5978;DHT22;3015;51.390;12.256;2022-10-22T03:37:03;11.60;99.90
5978;DHT22;3015;51.390;12.256;2022-10-22T03:39:30;11.60;99.90
5978;DHT22;3015;51.390;12.256;2022-10-22T03:41:57;11.60;99.90
5978;DHT22;3015;51.390;12.256;2022-10-22T03:44:23;11.60;99.90
5978;DHT22;3015;51.390;12.256;2022-10-22T03:46:50;11.70;99.90
5978;DHT22;3015;51.390;12.256;2022-10-22T03:49:15;11.60;99.90
5978;DHT22;3015;51.390;12.256;2022-10-22T03:51:41;11.60;99.90
5978;DHT22;3015;51.390;12.256;2022-10-22T03:54:07;11.60;99.90
5978;DHT22;3015;51.390;12.256;2022-10-22T03:56:32;11.60;99.90
5978;DHT22;3015;51.390;12.256;2022-10-22T03:58:59;11.60;99.90
5978;DHT22;3015;51.390;12.256;2022-10-22T04:01:26;11.60;99.90
5978;DHT22;3015;51.390;12.256;2022-10-22T04:03:52;11.60;99.90
5978;DHT22;3015;51.390;12.256;2022-10-22T04:06:17;11.60;99.90
5978;DHT22;3015;51.390;12.256;2022-10-22T04:08:44;11.60;99.90
5978;DHT22;3015;51.390;12.256;2022-10-22T04:11:11;11.60;99.90
5978;DHT22;3015;51.390;12.256;2022-10-22T04:13:37;11.60;99.90
5978;DHT22;3015;51.390;12.256;2022-10-22T04:16:14;11.60;99.90
5978;DHT22;3015;51.390;12.256;2022-10-22T04:18:41;11.50;99.90
5978;DHT22;3015;51.390;12.256;2022-10-22T04:21:09;11.60;99.90
5978;DHT22;3015;51.390;12.256;2022-10-22T04:23:35;11.60;99.90
5978;DHT22;3015;51.390;12.256;2022-10-22T04:26:04;11.60;99.90
5978;DHT22;3015;51.390;12.256;2022-10-22T04:28:30;11.60;99.90
5978;DHT22;3015;51.390;12.256;2022-10-22T04:30:56;11.50;99.90
5978;DHT22;3015;51.390;12.256;2022-10-22T04:33:21;11.50;99.90
5978;DHT22;3015;51.390;12.256;2022-10-22T04:35:47;11.60;99.90
5978;DHT22;3015;51.390;12.256;2022-10-22T04:38:13;11.60;99.90
5978;DHT22;3015;51.390;12.256;2022-10-22T04:40:39;11.60;99.90
5978;DHT22;3015;51.390;12.256;2022-10-22T04:43:04;11.50;99.90
5978;DHT22;3015;51.390;12.256;2022-10-22T04:45:32;11.50;99.90
5978;DHT22;3015;51.390;12.256;2022-10-22T04:47:57;11.50;99.90
5978;DHT22;3015;51.390;12.256;2022-10-22T04:50:23;11.50;99.90
5978;DHT22;3015;51.390;12.256;2022-10-22T04:52:49;11.50;99.90
5978;DHT22;3015;51.390;12.256;2022-10-22T04:55:14;11.50;99.90
5978;DHT22;3015;51.390;12.256;2022-10-22T04:57:40;11.60;99.90
5978;DHT22;3015;51.390;12.256;2022-10-22T05:00:06;11.60;99.90
5978;DHT22;3015;51.390;12.256;2022-10-22T05:02:32;11.50;99.90
5978;DHT22;3015;51.390;12.256;2022-10-22T05:04:57;11.50;99.90
5978;DHT22;3015;51.390;12.256;2022-10-22T05:07:23;11.50;99.90
5978;DHT22;3015;51.390;12.256;2022-10-22T05:09:49;11.50;99.90
5978;DHT22;3015;51.390;12.256;2022-10-22T05:12:14;11.50;99.90
5978;DHT22;3015;51.390;12.256;2022-10-22T05:14:40;11.50;99.90
5978;DHT22;3015;51.390;12.256;2022-10-22T05:17:06;11.50;99.90
5978;DHT22;3015;51.390;12.256;2022-10-22T05:19:32;11.50;99.90
5978;DHT22;3015;51.390;12.256;2022-10-22T05:22:00;11.50;99.90
5978;DHT22;3015;51.390;12.256;2022-10-22T05:24:28;11.70;99.90
5978;DHT22;3015;51.390;12.256;2022-10-22T05:26:55;11.70;99.90
5978;DHT22;3015;51.390;12.256;2022-10-22T05:29:22;11.70;99.90
5978;DHT22;3015;51.390;12.256;2022-10-22T05:31:48;11.70;99.90
5978;DHT22;3015;51.390;12.256;2022-10-22T05:34:14;11.70;99.90
5978;DHT22;3015;51.390;12.256;2022-10-22T05:36:40;11.70;99.90
5978;DHT22;3015;51.390;12.256;2022-10-22T05:39:06;11.80;99.90
5978;DHT22;3015;51.390;12.256;2022-10-22T05:41:32;11.80;99.90
5978;DHT22;3015;51.390;12.256;2022-10-22T05:43:59;11.90;99.90
5978;DHT22;3015;51.390;12.256;2022-10-22T05:46:26;11.90;99.90
5978;DHT22;3015;51.390;12.256;2022-10-22T05:49:01;11.90;99.90
5978;DHT22;3015;51.390;12.256;2022-10-22T05:51:28;11.90;99.90
5978;DHT22;3015;51.390;12.256;2022-10-22T05:53:56;11.90;99.90
5978;DHT22;3015;51.390;12.256;2022-10-22T05:56:23;12.00;99.90
5978;DHT22;3015;51.390;12.256;2022-10-22T05:58:49;12.00;99.90
5978;DHT22;3015;51.390;12.256;2022-10-22T06:01:20;12.00;99.90
5978;DHT22;3015;51.390;12.256;2022-10-22T06:03:47;12.00;99.90
5978;DHT22;3015;51.390;12.256;2022-10-22T06:06:28;12.10;99.90
5978;DHT22;3015;51.390;12.256;2022-10-22T06:08:55;12.10;99.90
5978;DHT22;3015;51.390;12.256;2022-10-22T06:11:24;12.20;99.90
5978;DHT22;3015;51.390;12.256;2022-10-22T06:13:50;12.20;99.90
5978;DHT22;3015;51.390;12.256;2022-10-22T06:16:16;12.20;99.90
5978;DHT22;3015;51.390;12.256;2022-10-22T06:18:42;12.30;99.90
5978;DHT22;3015;51.390;12.256;2022-10-22T06:21:09;12.30;99.90
5978;DHT22;3015;51.390;12.256;2022-10-22T06:23:36;12.50;99.90
5978;DHT22;3015;51.390;12.256;2022-10-22T06:26:02;12.50;1.00
5978;DHT22;3015;51.390;12.256;2022-10-22T06:28:29;12.60;1.00
5978;DHT22;3015;51.390;12.256;2022-10-22T06:30:56;12.60;1.00
5978;DHT22;3015;51.390;12.256;2022-10-22T06:33:22;12.60;1.00
5978;DHT22;3015;51.390;12.256;2022-10-22T06:35:48;12.60;1.00
5978;DHT22;3015;51.390;12.256;2022-10-22T06:38:13;12.50;1.00
5978;DHT22;3015;51.390;12.256;2022-10-22T06:40:39;12.60;1.00
5978;DHT22;3015;51.390;12.256;2022-10-22T06:43:08;12.70;1.00
5978;DHT22;3015;51.390;12.256;2022-10-22T06:45:34;12.70;1.00
5978;DHT22;3015;51.390;12.256;2022-10-22T06:48:00;12.80;1.00
5978;DHT22;3015;51.390;12.256;2022-10-22T06:50:25;12.90;99.90
5978;DHT22;3015;51.390;12.256;2022-10-22T06:52:51;13.00;99.90
5978;DHT22;3015;51.390;12.256;2022-10-22T06:55:17;13.10;99.90
5978;DHT22;3015;51.390;12.256;2022-10-22T06:57:42;13.20;1.00
5978;DHT22;3015;51.390;12.256;2022-10-22T07:00:08;13.30;1.00
5978;DHT22;3015;51.390;12.256;2022-10-22T07:02:34;13.50;1.00
5978;DHT22;3015;51.390;12.256;2022-10-22T07:04:59;13.50;1.00
5978;DHT22;3015;51.390;12.256;2022-10-22T07:07:25;13.60;1.00
5978;DHT22;3015;51.390;12.256;2022-10-22T07:09:51;13.80;1.00
5978;DHT22;3015;51.390;12.256;2022-10-22T07:12:16;13.90;1.00
5978;DHT22;3015;51.390;12.256;2022-10-22T07:14:42;13.90;1.00
5978;DHT22;3015;51.390;12.256;2022-10-22T07:17:08;14.00;1.00
5978;DHT22;3015;51.390;12.256;2022-10-22T07:19:34;14.10;1.00
5978;DHT22;3015;51.390;12.256;2022-10-22T07:21:59;14.10;1.00
5978;DHT22;3015;51.390;12.256;2022-10-22T07:24:25;14.30;1.00
5978;DHT22;3015;51.390;12.256;2022-10-22T07:26:51;14.30;1.00
5978;DHT22;3015;51.390;12.256;2022-10-22T07:29:16;14.40;1.00
5978;DHT22;3015;51.390;12.256;2022-10-22T07:31:42;14.50;1.00
5978;DHT22;3015;51.390;12.256;2022-10-22T07:34:09;14.50;1.00
5978;DHT22;3015;51.390;12.256;2022-10-22T07:36:35;14.60;1.00
5978;DHT22;3015;51.390;12.256;2022-10-22T07:39:01;14.70;1.00
5978;DHT22;3015;51.390;12.256;2022-10-22T07:41:29;14.80;1.00
5978;DHT22;3015;51.390;12.256;2022-10-22T07:43:55;14.90;99.90
5978;DHT22;3015;51.390;12.256;2022-10-22T07:46:22;14.80;99.90
5978;DHT22;3015;51.390;12.256;2022-10-22T07:48:48;14.70;99.90
5978;DHT22;3015;51.390;12.256;2022-10-22T07:51:14;14.70;99.90
5978;DHT22;3015;51.390;12.256;2022-10-22T07:53:40;14.60;99.90
5978;DHT22;3015;51.390;12.256;2022-10-22T07:56:06;14.60;99.90
5978;DHT22;3015;51.390;12.256;2022-10-22T07:58:32;14.50;1.00
5978;DHT22;3015;51.390;12.256;2022-10-22T08:00:59;14.50;1.00
5978;DHT22;3015;51.390;12.256;2022-10-22T08:03:25;14.60;1.00
5978;DHT22;3015;51.390;12.256;2022-10-22T08:05:52;14.50;99.90
5978;DHT22;3015;51.390;12.256;2022-10-22T08:08:18;14.50;1.00
5978;DHT22;3015;51.390;12.256;2022-10-22T08:10:45;14.50;1.00
5978;DHT22;3015;51.390;12.256;2022-10-22T08:13:11;14.50;1.00
5978;DHT22;3015;51.390;12.256;2022-10-22T08:15:37;14.50;1.00
5978;DHT22;3015;51.390;12.256;2022-10-22T08:18:03;14.50;1.00
5978;DHT22;3015;51.390;12.256;2022-10-22T08:20:29;14.40;1.00
5978;DHT22;3015;51.390;12.256;2022-10-22T08:22:55;14.50;1.00
5978;DHT22;3015;51.390;12.256;2022-10-22T08:25:20;14.50;1.00
5978;DHT22;3015;51.390;12.256;2022-10-22T08:27:46;14.50;1.00
5978;DHT22;3015;51.390;12.256;2022-10-22T08:30:12;14.60;1.00
5978;DHT22;3015;51.390;12.256;2022-10-22T08:32:38;14.60;1.00
5978;DHT22;3015;51.390;12.256;2022-10-22T08:35:04;14.70;1.00
5978;DHT22;3015;51.390;12.256;2022-10-22T08:37:30;14.70;1.00
5978;DHT22;3015;51.390;12.256;2022-10-22T08:39:55;14.60;1.00
5978;DHT22;3015;51.390;12.256;2022-10-22T08:50:53;14.70;1.00
5978;DHT22;3015;51.390;12.256;2022-10-22T08:53:42;14.70;1.00
5978;DHT22;3015;51.390;12.256;2022-10-22T08:56:13;14.70;99.90
5978;DHT22;3015;51.390;12.256;2022-10-22T09:01:32;14.80;99.90
5978;DHT22;3015;51.390;12.256;2022-10-22T09:04:06;15.00;99.90
5978;DHT22;3015;51.390;12.256;2022-10-22T09:06:36;15.10;99.90
5978;DHT22;3015;51.390;12.256;2022-10-22T09:09:10;15.10;1.00
5978;DHT22;3015;51.390;12.256;2022-10-22T09:11:41;15.30;1.00
5978;DHT22;3015;51.390;12.256;2022-10-22T09:14:13;15.50;1.00
5978;DHT22;3015;51.390;12.256;2022-10-22T09:22:40;16.00;99.90
5978;DHT22;3015;51.390;12.256;2022-10-22T09:25:22;16.10;99.90
5978;DHT22;3015;51.390;12.256;2022-10-22T09:27:49;16.10;99.90
5978;DHT22;3015;51.390;12.256;2022-10-22T09:30:17;16.30;99.90
5978;DHT22;3015;51.390;12.256;2022-10-22T09:32:43;16.90;1.00
5978;DHT22;3015;51.390;12.256;2022-10-22T09:35:11;17.50;1.00
5978;DHT22;3015;51.390;12.256;2022-10-22T09:37:47;18.30;1.00
5978;DHT22;3015;51.390;12.256;2022-10-22T09:40:13;19.50;1.00
5978;DHT22;3015;51.390;12.256;2022-10-22T09:42:39;20.60;1.00
5978;DHT22;3015;51.390;12.256;2022-10-22T09:45:05;22.10;1.00
5978;DHT22;3015;51.390;12.256;2022-10-22T09:47:39;23.30;99.90
5978;DHT22;3015;51.390;12.256;2022-10-22T09:52:39;25.30;99.90
5978;DHT22;3015;51.390;12.256;2022-10-22T09:55:13;25.70;99.90
5978;DHT22;3015;51.390;12.256;2022-10-22T09:57:40;26.50;99.90
5978;DHT22;3015;51.390;12.256;2022-10-22T10:00:10;27.30;99.90
5978;DHT22;3015;51.390;12.256;2022-10-22T10:02:39;27.60;99.90
5978;DHT22;3015;51.390;12.256;2022-10-22T10:05:26;28.50;99.90
5978;DHT22;3015;51.390;12.256;2022-10-22T10:07:52;29.30;99.90
5978;DHT22;3015;51.390;12.256;2022-10-22T10:13:07;28.50;99.90
5978;DHT22;3015;51.390;12.256;2022-10-22T10:15:54;27.90;99.90
5978;DHT22;3015;51.390;12.256;2022-10-22T10:30:19;28.70;99.90
5978;DHT22;3015;51.390;12.256;2022-10-22T10:44:21;30.00;99.90
5978;DHT22;3015;51.390;12.256;2022-10-22T10:50:10;29.00;99.90
5978;DHT22;3015;51.390;12.256;2022-10-22T10:52:56;28.70;99.90
5978;DHT22;3015;51.390;12.256;2022-10-22T10:55:37;29.30;99.90
5978;DHT22;3015;51.390;12.256;2022-10-22T10:58:11;29.20;99.90
5978;DHT22;3015;51.390;12.256;2022-10-22T11:00:55;28.70;99.90
5978;DHT22;3015;51.390;12.256;2022-10-22T11:06:11;28.00;99.90
5978;DHT22;3015;51.390;12.256;2022-10-22T11:08:44;27.60;99.90
5978;DHT22;3015;51.390;12.256;2022-10-22T11:11:18;27.60;99.90
5978;DHT22;3015;51.390;12.256;2022-10-22T11:13:56;28.20;99.90
5978;DHT22;3015;51.390;12.256;2022-10-22T11:16:26;29.10;99.90
5978;DHT22;3015;51.390;12.256;2022-10-22T11:21:26;29.70;99.90
5978;DHT22;3015;51.390;12.256;2022-10-22T11:26:43;30.00;99.90
5978;DHT22;3015;51.390;12.256;2022-10-22T11:29:21;29.10;99.90
5978;DHT22;3015;51.390;12.256;2022-10-22T11:31:48;28.90;99.90
5978;DHT22;3015;51.390;12.256;2022-10-22T11:34:18;28.80;99.90
5978;DHT22;3015;51.390;12.256;2022-10-22T11:36:47;28.80;99.90
5978;DHT22;3015;51.390;12.256;2022-10-22T11:40:04;28.30;99.90
5978;DHT22;3015;51.390;12.256;2022-10-22T11:42:36;28.20;99.90
5978;DHT22;3015;51.390;12.256;2022-10-22T11:50:26;29.80;99.90
5978;DHT22;3015;51.390;12.256;2022-10-22T11:53:03;29.10;99.90
5978;DHT22;3015;51.390;12.256;2022-10-22T11:58:42;28.20;99.90
5978;DHT22;3015;51.390;12.256;2022-10-22T12:11:36;27.10;99.90
5978;DHT22;3015;51.390;12.256;2022-10-22T12:14:54;26.90;99.90
5978;DHT22;3015;51.390;12.256;2022-10-22T12:17:21;25.90;99.90
5978;DHT22;3015;51.390;12.256;2022-10-22T12:19:57;24.90;99.90
5978;DHT22;3015;51.390;12.256;2022-10-22T12:22:32;24.80;99.90
5978;DHT22;3015;51.390;12.256;2022-10-22T12:25:04;25.30;99.90
5978;DHT22;3015;51.390;12.256;2022-10-22T12:27:38;26.00;99.90
5978;DHT22;3015;51.390;12.256;2022-10-22T12:30:27;25.90;99.90
5978;DHT22;3015;51.390;12.256;2022-10-22T12:32:56;26.20;99.90
5978;DHT22;3015;51.390;12.256;2022-10-22T12:35:25;26.10;99.90
5978;DHT22;3015;51.390;12.256;2022-10-22T12:37:53;26.20;99.90
5978;DHT22;3015;51.390;12.256;2022-10-22T12:40:30;25.60;99.90
5978;DHT22;3015;51.390;12.256;2022-10-22T12:43:00;25.00;99.90
5978;DHT22;3015;51.390;12.256;2022-10-22T12:45:31;24.60;99.90
5978;DHT22;3015;51.390;12.256;2022-10-22T12:47:59;24.40;99.90
5978;DHT22;3015;51.390;12.256;2022-10-22T12:50:42;24.30;99.90
5978;DHT22;3015;51.390;12.256;2022-10-22T12:53:18;24.40;99.90
5978;DHT22;3015;51.390;12.256;2022-10-22T12:55:49;24.20;99.90
5978;DHT22;3015;51.390;12.256;2022-10-22T12:58:17;23.90;99.90
5978;DHT22;3015;51.390;12.256;2022-10-22T13:00:45;23.90;99.90
5978;DHT22;3015;51.390;12.256;2022-10-22T13:03:29;24.20;99.90
5978;DHT22;3015;51.390;12.256;2022-10-22T13:05:54;24.80;99.90
5978;DHT22;3015;51.390;12.256;2022-10-22T13:08:22;26.30;99.90
5978;DHT22;3015;51.390;12.256;2022-10-22T13:10:53;27.00;99.90
5978;DHT22;3015;51.390;12.256;2022-10-22T13:16:21;25.80;99.90
5978;DHT22;3015;51.390;12.256;2022-10-22T13:18:49;25.80;99.90
5978;DHT22;3015;51.390;12.256;2022-10-22T13:23:55;25.20;99.90
5978;DHT22;3015;51.390;12.256;2022-10-22T13:26:23;25.50;99.90
5978;DHT22;3015;51.390;12.256;2022-10-22T13:28:52;26.30;99.90
5978;DHT22;3015;51.390;12.256;2022-10-22T13:31:23;26.60;99.90
5978;DHT22;3015;51.390;12.256;2022-10-22T13:33:58;26.30;99.90
5978;DHT22;3015;51.390;12.256;2022-10-22T13:36:25;26.40;99.90
5978;DHT22;3015;51.390;12.256;2022-10-22T13:38:50;26.30;99.90
5978;DHT22;3015;51.390;12.256;2022-10-22T13:41:25;26.10;99.90
5978;DHT22;3015;51.390;12.256;2022-10-22T13:43:52;26.30;99.90
5978;DHT22;3015;51.390;12.256;2022-10-22T13:46:18;26.50;99.90
5978;DHT22;3015;51.390;12.256;2022-10-22T13:48:45;26.10;99.90
5978;DHT22;3015;51.390;12.256;2022-10-22T13:51:23;26.00;99.90
5978;DHT22;3015;51.390;12.256;2022-10-22T13:53:51;25.80;99.90
5978;DHT22;3015;51.390;12.256;2022-10-22T13:56:19;25.10;99.90
5978;DHT22;3015;51.390;12.256;2022-10-22T13:58:46;24.90;99.90
5978;DHT22;3015;51.390;12.256;2022-10-22T14:01:21;25.20;99.90
5978;DHT22;3015;51.390;12.256;2022-10-22T14:03:55;25.10;99.90
5978;DHT22;3015;51.390;12.256;2022-10-22T14:06:29;25.50;99.90
5978;DHT22;3015;51.390;12.256;2022-10-22T14:09:01;25.40;99.90
5978;DHT22;3015;51.390;12.256;2022-10-22T14:11:27;25.20;99.90
5978;DHT22;3015;51.390;12.256;2022-10-22T14:13:55;24.80;99.90
5978;DHT22;3015;51.390;12.256;2022-10-22T14:16:23;24.70;99.90
5978;DHT22;3015;51.390;12.256;2022-10-22T14:18:50;24.30;99.90
5978;DHT22;3015;51.390;12.256;2022-10-22T14:21:16;24.10;99.90
5978;DHT22;3015;51.390;12.256;2022-10-22T14:23:44;23.90;99.90
5978;DHT22;3015;51.390;12.256;2022-10-22T14:26:27;23.60;99.90
5978;DHT22;3015;51.390;12.256;2022-10-22T14:28:54;23.10;99.90
5978;DHT22;3015;51.390;12.256;2022-10-22T14:31:20;22.70;99.90
5978;DHT22;3015;51.390;12.256;2022-10-22T14:33:46;22.50;99.90
5978;DHT22;3015;51.390;12.256;2022-10-22T14:36:12;22.00;99.90
5978;DHT22;3015;51.390;12.256;2022-10-22T14:38:39;21.60;99.90
5978;DHT22;3015;51.390;12.256;2022-10-22T14:41:19;21.20;99.90
5978;DHT22;3015;51.390;12.256;2022-10-22T14:43:46;20.90;99.90
5978;DHT22;3015;51.390;12.256;2022-10-22T14:46:13;20.80;99.90
5978;DHT22;3015;51.390;12.256;2022-10-22T14:48:39;20.50;99.90
5978;DHT22;3015;51.390;12.256;2022-10-22T14:51:06;20.20;99.90
5978;DHT22;3015;51.390;12.256;2022-10-22T14:53:31;19.90;99.90
5978;DHT22;3015;51.390;12.256;2022-10-22T14:55:57;19.50;99.90
5978;DHT22;3015;51.390;12.256;2022-10-22T15:00:50;19.40;99.90
5978;DHT22;3015;51.390;12.256;2022-10-22T15:03:16;19.10;99.90
5978;DHT22;3015;51.390;12.256;2022-10-22T16:18:56;19.00;99.90
5978;DHT22;3015;51.390;12.256;2022-10-22T16:21:22;15.60;1.00
5978;DHT22;3015;51.390;12.256;2022-10-22T16:23:48;15.40;1.00
5978;DHT22;3015;51.390;12.256;2022-10-22T16:26:15;15.40;99.90
5978;DHT22;3015;51.390;12.256;2022-10-22T16:28:42;15.30;96.80
5978;DHT22;3015;51.390;12.256;2022-10-22T16:31:10;15.20;27.90
5978;DHT22;3015;51.390;12.256;2022-10-22T16:33:36;15.10;99.90
5978;DHT22;3015;51.390;12.256;2022-10-22T16:36:13;14.90;99.90
5978;DHT22;3015;51.390;12.256;2022-10-22T16:38:40;14.90;99.90
5978;DHT22;3015;51.390;12.256;2022-10-22T16:41:14;14.70;45.80
5978;DHT22;3015;51.390;12.256;2022-10-22T16:43:45;14.60;45.40
5978;DHT22;3015;51.390;12.256;2022-10-22T16:46:18;14.40;1.00
5978;DHT22;3015;51.390;12.256;2022-10-22T16:48:49;14.30;99.90
5978;DHT22;3015;51.390;12.256;2022-10-22T16:51:18;14.20;99.90
5978;DHT22;3015;51.390;12.256;2022-10-22T16:53:44;14.10;99.90
5978;DHT22;3015;51.390;12.256;2022-10-22T16:56:14;14.00;94.10
5978;DHT22;3015;51.390;12.256;2022-10-22T16:58:48;13.90;99.90
5978;DHT22;3015;51.390;12.256;2022-10-22T17:01:15;13.80;99.90
5978;DHT22;3015;51.390;12.256;2022-10-22T17:03:41;13.70;99.90
5978;DHT22;3015;51.390;12.256;2022-10-22T17:06:07;13.60;99.90
5978;DHT22;3015;51.390;12.256;2022-10-22T17:08:34;13.60;1.00
5978;DHT22;3015;51.390;12.256;2022-10-22T17:11:07;13.50;1.00
5978;DHT22;3015;51.390;12.256;2022-10-22T17:13:34;13.30;1.00
5978;DHT22;3015;51.390;12.256;2022-10-22T17:16:04;13.30;32.90
5978;DHT22;3015;51.390;12.256;2022-10-22T17:18:31;13.10;1.00
5978;DHT22;3015;51.390;12.256;2022-10-22T17:20:56;13.00;1.00
5978;DHT22;3015;51.390;12.256;2022-10-22T17:23:24;12.90;1.00
5978;DHT22;3015;51.390;12.256;2022-10-22T17:26:00;12.80;70.00
5978;DHT22;3015;51.390;12.256;2022-10-22T17:28:27;12.70;1.00
5978;DHT22;3015;51.390;12.256;2022-10-22T17:31:20;12.60;1.00
5978;DHT22;3015;51.390;12.256;2022-10-22T17:33:46;12.50;1.00
5978;DHT22;3015;51.390;12.256;2022-10-22T17:36:13;12.40;99.90
5978;DHT22;3015;51.390;12.256;2022-10-22T17:38:40;12.40;99.90
5978;DHT22;3015;51.390;12.256;2022-10-22T17:41:07;12.40;18.20
5978;DHT22;3015;51.390;12.256;2022-10-22T17:43:35;12.40;1.00
5978;DHT22;3015;51.390;12.256;2022-10-22T17:46:05;12.40;99.90
5978;DHT22;3015;51.390;12.256;2022-10-22T17:48:31;12.40;84.00
5978;DHT22;3015;51.390;12.256;2022-10-22T17:50:57;12.40;99.90
5978;DHT22;3015;51.390;12.256;2022-10-22T17:53:22;12.40;99.90
5978;DHT22;3015;51.390;12.256;2022-10-22T17:55:48;12.50;1.00
5978;DHT22;3015;51.390;12.256;2022-10-22T17:58:14;12.60;47.00
5978;DHT22;3015;51.390;12.256;2022-10-22T18:00:39;12.60;1.00
5978;DHT22;3015;51.390;12.256;2022-10-22T18:03:05;12.70;1.00
5978;DHT22;3015;51.390;12.256;2022-10-22T18:05:32;12.60;23.50
5978;DHT22;3015;51.390;12.256;2022-10-22T18:07:57;12.70;99.90
5978;DHT22;3015;51.390;12.256;2022-10-22T18:10:23;12.60;14.00
5978;DHT22;3015;51.390;12.256;2022-10-22T18:12:49;12.60;1.00
5978;DHT22;3015;51.390;12.256;2022-10-22T18:15:15;12.50;1.00
5978;DHT22;3015;51.390;12.256;2022-10-22T18:17:41;12.50;99.90
5978;DHT22;3015;51.390;12.256;2022-10-22T18:20:07;12.40;15.60
5978;DHT22;3015;51.390;12.256;2022-10-22T18:22:32;12.30;99.90
5978;DHT22;3015;51.390;12.256;2022-10-22T18:24:59;12.20;99.90
5978;DHT22;3015;51.390;12.256;2022-10-22T18:27:25;12.10;99.90
5978;DHT22;3015;51.390;12.256;2022-10-22T18:29:50;12.10;1.00
5978;DHT22;3015;51.390;12.256;2022-10-22T18:32:16;12.00;1.00
5978;DHT22;3015;51.390;12.256;2022-10-22T18:34:42;12.00;99.90
5978;DHT22;3015;51.390;12.256;2022-10-22T18:37:08;12.10;1.00
5978;DHT22;3015;51.390;12.256;2022-10-22T18:39:33;12.10;99.90
5978;DHT22;3015;51.390;12.256;2022-10-22T18:41:59;12.00;99.90
5978;DHT22;3015;51.390;12.256;2022-10-22T18:44:30;12.10;99.90
5978;DHT22;3015;51.390;12.256;2022-10-22T18:46:56;12.10;1.00
5978;DHT22;3015;51.390;12.256;2022-10-22T18:49:21;11.90;1.00
5978;DHT22;3015;51.390;12.256;2022-10-22T18:51:47;11.90;1.00
5978;DHT22;3015;51.390;12.256;2022-10-22T18:54:20;11.80;1.00
5978;DHT22;3015;51.390;12.256;2022-10-22T18:56:46;11.70;99.90
5978;DHT22;3015;51.390;12.256;2022-10-22T18:59:23;11.70;1.00